地図

経路データ

SID SEASON NUMBER BASIN SUBBASIN NAME ISO_TIME NATURE LAT LON WMO_WIND WMO_PRES WMO_AGENCY TRACK_TYPE DIST2LAND LANDFALL IFLAG USA_AGENCY USA_ATCF_ID USA_LAT USA_LON USA_RECORD USA_STATUS USA_WIND USA_PRES USA_SSHS USA_R34_NE USA_R34_SE USA_R34_SW USA_R34_NW USA_R50_NE USA_R50_SE USA_R50_SW USA_R50_NW USA_R64_NE USA_R64_SE USA_R64_SW USA_R64_NW USA_POCI USA_ROCI USA_RMW USA_EYE TOKYO_LAT TOKYO_LON TOKYO_GRADE TOKYO_WIND TOKYO_PRES TOKYO_R50_DIR TOKYO_R50_LONG TOKYO_R50_SHORT TOKYO_R30_DIR TOKYO_R30_LONG TOKYO_R30_SHORT TOKYO_LAND CMA_LAT CMA_LON CMA_CAT CMA_WIND CMA_PRES HKO_LAT HKO_LON HKO_CAT HKO_WIND HKO_PRES NEWDELHI_LAT NEWDELHI_LON NEWDELHI_GRADE NEWDELHI_WIND NEWDELHI_PRES NEWDELHI_CI NEWDELHI_DP NEWDELHI_POCI REUNION_LAT REUNION_LON REUNION_TYPE REUNION_WIND REUNION_PRES REUNION_TNUM REUNION_CI REUNION_RMW REUNION_R34_NE REUNION_R34_SE REUNION_R34_SW REUNION_R34_NW REUNION_R50_NE REUNION_R50_SE REUNION_R50_SW REUNION_R50_NW REUNION_R64_NE REUNION_R64_SE REUNION_R64_SW REUNION_R64_NW BOM_LAT BOM_LON BOM_TYPE BOM_WIND BOM_PRES BOM_TNUM BOM_CI BOM_RMW BOM_R34_NE BOM_R34_SE BOM_R34_SW BOM_R34_NW BOM_R50_NE BOM_R50_SE BOM_R50_SW BOM_R50_NW BOM_R64_NE BOM_R64_SE BOM_R64_SW BOM_R64_NW BOM_ROCI BOM_POCI BOM_EYE BOM_POS_METHOD BOM_PRES_METHOD NADI_LAT NADI_LON NADI_CAT NADI_WIND NADI_PRES WELLINGTON_LAT WELLINGTON_LON WELLINGTON_WIND WELLINGTON_PRES DS824_LAT DS824_LON DS824_STAGE DS824_WIND DS824_PRES TD9636_LAT TD9636_LON TD9636_STAGE TD9636_WIND TD9636_PRES TD9635_LAT TD9635_LON TD9635_WIND TD9635_PRES TD9635_ROCI NEUMANN_LAT NEUMANN_LON NEUMANN_CLASS NEUMANN_WIND NEUMANN_PRES MLC_LAT MLC_LON MLC_CLASS MLC_WIND MLC_PRES USA_GUST BOM_GUST BOM_GUST_PER REUNION_GUST REUNION_GUST_PER USA_SEAHGT USA_SEARAD_NE USA_SEARAD_SE USA_SEARAD_SW USA_SEARAD_NW STORM_SPEED STORM_DIR
1946057S12060 1946 16 SI MM NOT_NAMED 1946-02-25 18:00:00 TS -11.8000 59.8000 main 955 953 O________OO___ jtwc_sh SH141946 -11.8000 59.8000 -1 -11.8000 59.8000 TC -11.8000 59.8000 1 3 251
1946057S12060 1946 16 SI MM NOT_NAMED 1946-02-25 21:00:00 TS -11.8490 59.6591 main 953 937 P________PP___ SH141946 -11.8525 59.6550 -1 -11.8525 59.6550 TC -11.8421 59.6672 1 3 252
1946057S12060 1946 16 SI MM NOT_NAMED 1946-02-26 00:00:00 TS -11.8958 59.5058 main 937 933 O________OP___ jtwc_sh SH141946 -11.9000 59.5000 -1 -11.9000 59.5000 TC -11.8873 59.5175 1 3 254
1946057S12060 1946 16 SI MM NOT_NAMED 1946-02-26 03:00:00 TS -11.9413 59.3263 main 933 918 P________PP___ SH141946 -11.9425 59.3225 -1 -11.9425 59.3225 TC -11.9389 59.3340 1 4 255
1946057S12060 1946 16 SI MM NOT_NAMED 1946-02-26 06:00:00 TS -12.0000 59.1000 main 918 903 O________OO___ jtwc_sh SH141946 -12.0000 59.1000 -1 -12.0000 59.1000 TC 25 -12.0000 59.1000 1 5 254
1946057S12060 1946 16 SI MM NOT_NAMED 1946-02-26 09:00:00 TS -12.0862 58.8170 main 903 888 P________PP___ SH141946 -12.0925 58.8225 -1 -12.0925 58.8225 TC 25 -12.0736 58.8059 1 6 253
1946057S12060 1946 16 SI MM NOT_NAMED 1946-02-26 12:00:00 TS -12.1876 58.4908 main 888 874 O________OP___ jtwc_sh SH141946 -12.2000 58.5000 -1 -12.2000 58.5000 TC 25 -12.1628 58.4725 1 7 253
1946057S12060 1946 16 SI MM NOT_NAMED 1946-02-26 15:00:00 TS -12.2852 58.1376 main 874 848 P________PP___ SH141946 -12.2925 58.1425 -1 -12.2925 58.1425 TC 25 -12.2705 58.1278 1 7 253
1946057S12060 1946 16 SI MM NOT_NAMED 1946-02-26 18:00:00 TS -12.4000 57.8000 main 848 814 O________OO___ jtwc_sh SH141946 -12.4000 57.8000 -1 -12.4000 57.8000 TC 25 -12.4000 57.8000 1 6 247
1946057S12060 1946 16 SI MM NOT_NAMED 1946-02-26 21:00:00 TS -12.5343 57.5246 main 814 785 P________PP___ SH141946 -12.5349 57.5350 -1 -12.5349 57.5350 TC 25 -12.5331 57.5041 1 6 240
1946057S12060 1946 16 SI MM NOT_NAMED 1946-02-27 00:00:00 TS -12.6967 57.2775 main 785 747 O________OP___ jtwc_sh SH141946 -12.7000 57.3000 -1 -12.7000 57.3000 TC 25 -12.6900 57.2325 1 6 235
1946057S12060 1946 16 SI MM NOT_NAMED 1946-02-27 03:00:00 TS -12.8773 57.0216 main 747 719 P________PP___ SH141946 -12.8775 57.0350 -1 -12.8775 57.0350 TC 25 -12.8769 56.9947 1 6 229
1946057S12060 1946 16 SI MM NOT_NAMED 1946-02-27 06:00:00 TS -13.1000 56.8000 main 719 687 O________OO___ jtwc_sh SH141946 -13.1000 56.8000 -1 -13.1000 56.8000 TC 25 -13.1000 56.8000 1 6 218
1946057S12060 1946 16 SI MM NOT_NAMED 1946-02-27 09:00:00 TS -13.3820 56.6229 main 687 667 P________PP___ SH141946 -13.3850 56.6200 -1 -13.3850 56.6200 TC 25 -13.3761 56.6285 1 7 206
1946057S12060 1946 16 SI MM NOT_NAMED 1946-02-27 12:00:00 TS -13.6950 56.5009 main 667 649 O________OP___ jtwc_sh SH141946 -13.7000 56.5000 -1 -13.7000 56.5000 TC 25 -13.6849 56.5027 1 7 197
1946057S12060 1946 16 SI MM NOT_NAMED 1946-02-27 15:00:00 TS -14.0104 56.4268 main 649 642 P________PP___ SH141946 -14.0150 56.4275 -1 -14.0150 56.4275 TC 25 -14.0012 56.4255 1 6 189
1946057S12060 1946 16 SI MM NOT_NAMED 1946-02-27 18:00:00 TS -14.3000 56.4000 main 642 637 O________OO___ jtwc_sh SH141946 -14.3000 56.4000 -1 -14.3000 56.4000 TC 25 -14.3000 56.4000 1 5 185
1946057S12060 1946 16 SI MM NOT_NAMED 1946-02-27 21:00:00 TS -14.5137 56.3802 main 637 615 P________PP___ SH141946 -14.5075 56.3700 -1 -14.5075 56.3700 TC 25 -14.5262 56.4004 1 4 0
1946057S12060 1946 16 SI MM NOT_NAMED 1946-02-28 00:00:00 TS -14.7116 56.4176 main 615 591 O________OP___ jtwc_sh SH141946 -14.7000 56.4000 -1 -14.7000 56.4000 TC 25 -14.7348 56.4527 1 4 160
1946057S12060 1946 16 SI MM NOT_NAMED 1946-02-28 03:00:00 TS -14.9354 56.5312 main 591 554 P________PP___ SH141946 -14.9275 56.5200 -1 -14.9275 56.5200 TC 25 -14.9511 56.5537 1 6 151
1946057S12060 1946 16 SI MM NOT_NAMED 1946-02-28 06:00:00 TS -15.2000 56.7000 main 554 518 O________OO___ jtwc_sh SH141946 -15.2000 56.7000 -1 -15.2000 56.7000 TC 25 -15.2000 56.7000 1 7 150
1946057S12060 1946 16 SI MM NOT_NAMED 1946-02-28 09:00:00 TS -15.5281 56.8866 main 518 471 P________PP___ SH141946 -15.5350 56.8850 -1 -15.5350 56.8850 TC 25 -15.5142 56.8897 1 8 150
1946057S12060 1946 16 SI MM NOT_NAMED 1946-02-28 12:00:00 TS -15.8876 57.1065 main 471 436 O________OP___ jtwc_sh SH141946 -15.9000 57.1000 -1 -15.9000 57.1000 TC 25 -15.8627 57.1196 1 8 148
1946057S12060 1946 16 SI MM NOT_NAMED 1946-02-28 15:00:00 TS -16.2433 57.3499 main 436 391 P________PP___ SH141946 -16.2500 57.3425 -1 -16.2500 57.3425 TC 25 -16.2299 57.3647 1 9 146
1946057S12060 1946 16 SI MM NOT_NAMED 1946-02-28 18:00:00 TS -16.6000 57.6000 main 391 358 O________OO___ jtwc_sh SH141946 -16.6000 57.6000 -1 -16.6000 57.6000 TC 25 -16.6000 57.6000 1 9 146
1946057S12060 1946 16 SI MM NOT_NAMED 1946-02-28 21:00:00 TS -16.9622 57.8649 main 347 316 P________PP___ SH141946 -16.9500 57.8725 -1 -16.9500 57.8725 TC 25 -16.9866 57.8498 1 9 147
1946057S12060 1946 16 SI MM NOT_NAMED 1946-03-01 00:00:00 TS -17.3225 58.0923 main 316 273 O________OP___ jtwc_sh SH141946 -17.3000 58.1000 -1 -17.3000 58.1000 TC 25 -17.3675 58.0768 1 8 153
1946057S12060 1946 16 SI MM NOT_NAMED 1946-03-01 03:00:00 TS -17.6865 58.2535 main 275 243 P________PP___ SH141946 -17.6724 58.2600 -1 -17.6724 58.2600 TC 25 -17.7146 58.2404 1 7 164
1946057S12060 1946 16 SI MM NOT_NAMED 1946-03-01 06:00:00 TS -18.0000 58.3000 main 243 218 O________OO___ jtwc_sh SH141946 -18.0000 58.3000 -1 -18.0000 58.3000 TC 25 -18.0000 58.3000 1 6 184
1946057S12060 1946 16 SI MM NOT_NAMED 1946-03-01 09:00:00 TS -18.2320 58.2059 main 218 192 P________PP___ SH141946 -18.2450 58.2026 -1 -18.2450 58.2026 TC 25 -18.2059 58.2125 1 5 216
1946057S12060 1946 16 SI MM NOT_NAMED 1946-03-01 12:00:00 TS -18.3825 58.0069 main 192 179 O________OP___ jtwc_sh SH141946 -18.4000 58.0000 -1 -18.4000 58.0000 TC 25 -18.3476 58.0207 1 5 241
1946057S12060 1946 16 SI MM NOT_NAMED 1946-03-01 15:00:00 TS -18.4668 57.7662 main 179 178 P________PP___ SH141946 -18.4800 57.7650 -1 -18.4800 57.7650 TC 25 -18.4404 57.7685 1 5 256
1946057S12060 1946 16 SI MM NOT_NAMED 1946-03-01 18:00:00 TS -18.5000 57.5000 main 178 178 O________OO___ jtwc_sh SH141946 -18.5000 57.5000 -1 -18.5000 57.5000 TC 25 -18.5000 57.5000 1 5 264
1946057S12060 1946 16 SI MM NOT_NAMED 1946-03-01 21:00:00 TS -18.5166 57.2543 main 180 180 P________PP___ SH141946 -18.5000 57.2424 -1 -18.5000 57.2424 TC 25 -18.5497 57.2779 1 5 267
1946057S12060 1946 16 SI MM NOT_NAMED 1946-03-02 00:00:00 TS -18.5242 57.0166 main 186 183 O________OP___ jtwc_sh SH141946 -18.5000 57.0000 -1 -18.5000 57.0000 TC 25 -18.5725 57.0497 1 4 265
1946057S12060 1946 16 SI MM NOT_NAMED 1946-03-02 03:00:00 TS -18.5563 56.8022 main 183 183 P________PP___ SH141946 -18.5425 56.7925 -1 -18.5425 56.7925 TC 25 -18.5841 56.8217 1 4 259
1946057S12060 1946 16 SI MM NOT_NAMED 1946-03-02 06:00:00 TS -18.6000 56.6000 main 192 192 O________OO___ jtwc_sh SH141946 -18.6000 56.6000 -1 -18.6000 56.6000 TC 25 -18.6000 56.6000 1 4 256
1946057S12060 1946 16 SI MM NOT_NAMED 1946-03-02 09:00:00 TS -18.6503 56.3963 main 194 194 P________PP___ SH141946 -18.6500 56.4000 -1 -18.6500 56.4000 TC 25 -18.6509 56.3888 1 4 255
1946057S12060 1946 16 SI MM NOT_NAMED 1946-03-02 12:00:00 TS -18.7025 56.1950 main 207 207 O________OP___ jtwc_sh SH141946 -18.7000 56.2000 -1 -18.7000 56.2000 TC 25 -18.7074 56.1851 1 4 254
1946057S12060 1946 16 SI MM NOT_NAMED 1946-03-02 15:00:00 TS -18.7584 55.9963 main 214 214 P________PP___ SH141946 -18.7575 56.0000 -1 -18.7575 56.0000 TC 25 -18.7603 55.9888 1 4 255
1946057S12060 1946 16 SI MM NOT_NAMED 1946-03-02 18:00:00 TS -18.8000 55.8000 main 230 230 O________OO___ jtwc_sh SH141946 -18.8000 55.8000 -1 -18.8000 55.8000 TC 25 -18.8000 55.8000 1 4 262
1946057S12060 1946 16 SI MM NOT_NAMED 1946-03-02 21:00:00 TS -18.8116 55.6011 main 246 246 P________PP___ SH141946 -18.8075 55.5925 -1 -18.8075 55.5925 TC 25 -18.8198 55.6184 1 4 269
1946057S12060 1946 16 SI MM NOT_NAMED 1946-03-03 00:00:00 TS -18.8075 55.4141 main 246 246 O________OP___ jtwc_sh SH141946 -18.8000 55.4000 -1 -18.8000 55.4000 TC 25 -18.8226 55.4424 1 3 271
1946057S12060 1946 16 SI MM NOT_NAMED 1946-03-03 03:00:00 TS -18.8031 55.2501 main 246 246 P________PP___ SH141946 -18.7975 55.2400 -1 -18.7975 55.2400 TC 25 -18.8142 55.2702 1 3 271
1946057S12060 1946 16 SI MM NOT_NAMED 1946-03-03 06:00:00 TS -18.8000 55.1000 main 246 O________OO___ jtwc_sh SH141946 -18.8000 55.1000 -1 -18.8000 55.1000 TC 25 -18.8000 55.1000 1 3 271

IBTrACS Databaseについて

本データベースは、米国NOAAが公開する1842年以降の世界の熱帯低気圧のベストトラックデータアーカイブInternational Best Track Archive for Climate Stewardship (IBTrACS)を、ウェブで閲覧しやすい形式に変換したものです。

最終更新日:2021-11-26